Time;durP1;ratioP1;P1;durP2;ratioP2;P2;SDS_P1;SDS_P2;PMS_P1;PMS_P2;Temp;Humidity;BMP_temperature;BMP_pressure;BME280_temperature;BME280_humidity;BME280_pressure;Samples;Min_cycle;Max_cycle;Signal;HPM_P1;HPM_P2
2024/01/17 00:00:52;;;;;;;1.77;1.67;;;18.70;35.00;;;;;;5021600;28;20321;-71
2024/01/17 00:03:17;;;;;;;1.90;1.80;;;18.70;35.00;;;;;;5030141;28;20235;-71
2024/01/17 00:05:43;;;;;;;1.60;1.50;;;18.70;35.00;;;;;;5032627;28;20230;-72
2024/01/17 00:08:09;;;;;;;1.90;1.80;;;18.70;34.90;;;;;;5033468;28;20345;-72
2024/01/17 00:10:35;;;;;;;1.70;1.60;;;18.70;35.00;;;;;;5028633;28;20223;-72
2024/01/17 00:13:01;;;;;;;1.60;1.50;;;18.70;35.00;;;;;;5025274;28;20321;-72
2024/01/17 00:15:26;;;;;;;1.57;1.47;;;18.70;35.00;;;;;;5022320;28;20300;-71
2024/01/17 00:17:52;;;;;;;2.23;2.03;;;18.70;35.00;;;;;;5024232;28;20978;-71
2024/01/17 00:20:18;;;;;;;1.60;1.50;;;18.70;35.00;;;;;;5016095;28;20715;-71
2024/01/17 00:22:44;;;;;;;1.60;1.50;;;18.70;35.00;;;;;;5021086;28;20238;-71
2024/01/17 00:25:10;;;;;;;3.43;1.80;;;18.70;35.00;;;;;;5022298;28;20218;-71
2024/01/17 00:27:36;;;;;;;2.17;2.03;;;18.70;35.00;;;;;;5022253;28;20433;-72
2024/01/17 00:30:02;;;;;;;1.67;1.57;;;18.70;35.00;;;;;;5039286;28;20217;-72
2024/01/17 00:32:27;;;;;;;1.63;1.53;;;18.70;35.00;;;;;;5032767;28;20421;-72
2024/01/17 00:34:53;;;;;;;2.20;2.10;;;18.70;35.00;;;;;;5025309;28;20439;-71
2024/01/17 00:37:19;;;;;;;1.60;1.50;;;18.70;35.00;;;;;;5028684;28;20249;-71
2024/01/17 00:39:44;;;;;;;2.07;1.97;;;18.70;34.90;;;;;;5036357;28;20218;-71
2024/01/17 00:42:10;;;;;;;2.33;1.60;;;18.70;35.00;;;;;;5028353;28;20697;-71
2024/01/17 00:44:38;;;;;;;1.70;1.50;;;18.70;34.90;;;;;;5037856;28;20317;-71
2024/01/17 00:47:04;;;;;;;1.57;1.47;;;18.70;34.90;;;;;;5037449;28;20228;-70
2024/01/17 00:49:30;;;;;;;1.83;1.73;;;18.70;35.00;;;;;;5034383;28;20459;-72
2024/01/17 00:51:55;;;;;;;1.70;1.60;;;18.70;34.90;;;;;;5036108;28;20438;-72
2024/01/17 00:54:21;;;;;;;1.93;1.70;;;18.70;34.90;;;;;;5032516;28;20233;-72
2024/01/17 00:56:46;;;;;;;1.80;1.70;;;18.70;34.90;;;;;;5036077;28;20222;-71
2024/01/17 00:59:12;;;;;;;1.60;1.50;;;18.70;35.00;;;;;;5037272;28;20639;-70
2024/01/17 01:01:37;;;;;;;1.70;1.60;;;18.70;35.00;;;;;;5018980;28;20595;-70
2024/01/17 01:04:03;;;;;;;1.80;1.70;;;18.70;35.00;;;;;;5020739;28;20233;-71
2024/01/17 01:06:29;;;;;;;1.90;1.80;;;18.70;34.90;;;;;;5020580;28;20214;-70
2024/01/17 01:08:54;;;;;;;1.63;1.53;;;18.60;34.90;;;;;;5020362;28;20389;-71
2024/01/17 01:11:20;;;;;;;1.80;1.70;;;18.70;34.90;;;;;;5031717;28;20249;-70
2024/01/17 01:13:45;;;;;;;1.97;1.87;;;18.70;34.90;;;;;;5027739;28;20251;-71
2024/01/17 01:16:11;;;;;;;1.70;1.53;;;18.70;35.00;;;;;;5030285;28;20645;-71
2024/01/17 01:18:37;;;;;;;2.17;1.97;;;18.60;34.80;;;;;;5023319;28;20213;-71
2024/01/17 01:21:02;;;;;;;1.67;1.57;;;18.60;34.90;;;;;;5013625;28;20211;-71
2024/01/17 01:23:28;;;;;;;1.60;1.50;;;18.60;34.90;;;;;;5026445;28;20235;-71
2024/01/17 01:25:53;;;;;;;2.07;1.97;;;18.60;34.80;;;;;;5025779;28;20214;-70
2024/01/17 01:28:19;;;;;;;1.83;1.73;;;18.60;34.80;;;;;;5043180;28;20329;-71
2024/01/17 01:30:45;;;;;;;1.70;1.60;;;18.60;34.80;;;;;;5017215;28;20716;-71
2024/01/17 01:33:11;;;;;;;1.93;1.73;;;18.60;34.80;;;;;;5021478;28;20442;-71
2024/01/17 01:35:36;;;;;;;1.77;1.60;;;18.60;34.90;;;;;;5017520;28;20632;-71
2024/01/17 01:38:02;;;;;;;1.73;1.63;;;18.60;34.80;;;;;;5012454;28;20736;-72
2024/01/17 01:40:28;;;;;;;2.07;1.50;;;18.60;34.80;;;;;;5019357;28;20233;-72
2024/01/17 01:42:56;;;;;;;1.73;1.63;;;18.60;34.80;;;;;;5018812;28;20634;-72
2024/01/17 01:45:22;;;;;;;1.73;1.63;;;18.60;34.80;;;;;;5021250;28;20222;-72
2024/01/17 01:47:48;;;;;;;2.07;1.97;;;18.60;34.80;;;;;;5021123;28;20490;-72
2024/01/17 01:50:13;;;;;;;1.57;1.47;;;18.60;34.80;;;;;;5020500;28;20230;-72
2024/01/17 01:52:44;;;;;;;1.50;1.40;;;18.60;34.80;;;;;;5029321;28;20325;-72
2024/01/17 01:55:10;;;;;;;1.60;1.50;;;18.60;34.80;;;;;;5035500;28;20846;-72
2024/01/17 01:57:38;;;;;;;1.77;1.67;;;18.60;34.80;;;;;;5028501;28;20426;-72
2024/01/17 02:00:04;;;;;;;1.80;1.70;;;18.60;34.80;;;;;;5019282;28;20461;-72
2024/01/17 02:02:32;;;;;;;1.60;1.50;;;18.60;34.80;;;;;;5019614;28;21198;-72
2024/01/17 02:04:59;;;;;;;1.60;1.50;;;18.70;34.90;;;;;;5015080;28;21081;-72
2024/01/17 02:07:27;;;;;;;1.60;1.50;;;18.60;34.80;;;;;;5022267;28;20446;-72
2024/01/17 02:09:53;;;;;;;1.60;1.50;;;18.60;34.80;;;;;;5029648;28;20445;-71
2024/01/17 02:12:19;;;;;;;1.57;1.47;;;18.60;34.80;;;;;;5025426;28;20452;-72
2024/01/17 02:14:44;;;;;;;1.47;1.37;;;18.60;34.80;;;;;;5027229;28;20470;-72
2024/01/17 02:17:10;;;;;;;1.70;1.60;;;18.60;34.70;;;;;;5021437;28;20227;-72
2024/01/17 02:19:40;;;;;;;2.50;1.70;;;18.60;34.80;;;;;;5032683;28;20222;-71
2024/01/17 02:22:05;;;;;;;1.60;1.50;;;18.60;34.80;;;;;;5030255;28;20453;-71
2024/01/17 02:24:31;;;;;;;1.50;1.40;;;18.60;34.80;;;;;;5035415;28;20501;-71
2024/01/17 02:26:59;;;;;;;1.47;1.37;;;18.60;34.80;;;;;;5033901;28;20668;-71
2024/01/17 02:29:30;;;;;;;1.47;1.37;;;18.60;34.80;;;;;;5035120;28;20313;-71
2024/01/17 02:31:59;;;;;;;1.53;1.30;;;18.60;34.70;;;;;;5024673;28;20443;-71
2024/01/17 02:34:25;;;;;;;1.60;1.50;;;18.60;34.80;;;;;;5032602;28;21011;-71
2024/01/17 02:36:50;;;;;;;1.70;1.60;;;18.60;34.80;;;;;;5023549;28;20472;-71
2024/01/17 02:39:16;;;;;;;1.50;1.40;;;18.60;34.80;;;;;;5035083;28;20284;-71
2024/01/17 02:41:43;;;;;;;1.50;1.40;;;18.60;34.70;;;;;;5025365;28;20783;-71
2024/01/17 02:44:09;;;;;;;1.60;1.50;;;18.60;34.70;;;;;;5016928;28;20560;-71
2024/01/17 02:46:34;;;;;;;1.80;1.70;;;18.60;34.80;;;;;;5026604;28;20493;-71
2024/01/17 02:49:00;;;;;;;1.70;1.60;;;18.60;34.70;;;;;;5028574;28;20321;-71
2024/01/17 02:51:26;;;;;;;1.57;1.47;;;18.60;34.80;;;;;;5035666;28;20222;-71
2024/01/17 02:53:51;;;;;;;1.40;1.30;;;18.60;34.80;;;;;;5019548;28;20280;-71
2024/01/17 02:56:17;;;;;;;1.77;1.67;;;18.60;34.80;;;;;;5030502;28;20222;-72
2024/01/17 02:58:43;;;;;;;1.80;1.70;;;18.60;34.70;;;;;;5008697;28;20222;-71
2024/01/17 03:01:08;;;;;;;1.60;1.50;;;18.60;34.80;;;;;;5019534;28;20632;-71
2024/01/17 03:03:34;;;;;;;1.50;1.40;;;18.60;34.80;;;;;;5027722;28;20309;-72
2024/01/17 03:06:00;;;;;;;1.50;1.40;;;18.60;34.70;;;;;;5035615;28;20219;-71
2024/01/17 03:08:25;;;;;;;1.70;1.60;;;18.60;34.70;;;;;;5035520;28;20326;-71
2024/01/17 03:10:51;;;;;;;1.40;1.30;;;18.60;34.70;;;;;;5028879;28;20225;-71
2024/01/17 03:13:16;;;;;;;1.77;1.67;;;18.60;34.70;;;;;;5025409;28;20243;-72
2024/01/17 03:15:42;;;;;;;1.83;1.73;;;18.60;34.70;;;;;;5036444;28;20677;-71
2024/01/17 03:18:13;;;;;;;1.77;1.67;;;18.60;34.70;;;;;;5027766;28;20625;-71
2024/01/17 03:20:42;;;;;;;2.17;1.97;;;18.60;34.70;;;;;;5018674;28;20210;-71
2024/01/17 03:23:08;;;;;;;1.70;1.60;;;18.60;34.70;;;;;;5022963;28;20454;-71
2024/01/17 03:25:33;;;;;;;1.77;1.67;;;18.60;35.50;;;;;;5019543;28;20474;-71
2024/01/17 03:27:59;;;;;;;1.70;1.60;;;18.60;34.70;;;;;;5027055;28;20216;-71
2024/01/17 03:30:25;;;;;;;1.57;1.47;;;18.60;34.70;;;;;;5016839;28;20320;-71
2024/01/17 03:32:50;;;;;;;1.70;1.60;;;18.60;34.70;;;;;;5022409;28;20222;-71
2024/01/17 03:35:15;;;;;;;1.70;1.60;;;18.60;34.70;;;;;;5024419;28;20230;-71
2024/01/17 03:37:41;;;;;;;1.90;1.80;;;18.60;34.70;;;;;;5017528;28;20760;-71
2024/01/17 03:40:07;;;;;;;1.83;1.40;;;18.60;34.70;;;;;;5034571;28;20299;-71
2024/01/17 03:42:33;;;;;;;1.50;1.40;;;18.60;34.70;;;;;;5068637;28;20235;-71
2024/01/17 03:44:58;;;;;;;1.83;1.73;;;18.60;34.70;;;;;;5025894;28;20464;-71
2024/01/17 03:47:24;;;;;;;1.50;1.40;;;18.60;34.70;;;;;;5022425;28;20274;-71
2024/01/17 03:49:49;;;;;;;1.90;1.70;;;18.60;34.70;;;;;;5022932;28;20305;-71
2024/01/17 03:52:15;;;;;;;1.60;1.50;;;18.60;34.70;;;;;;5024341;28;20237;-71
2024/01/17 03:54:41;;;;;;;1.70;1.60;;;18.60;34.70;;;;;;5030505;28;20238;-71
2024/01/17 03:57:08;;;;;;;1.70;1.60;;;18.60;34.70;;;;;;5024735;28;20463;-71
2024/01/17 03:59:34;;;;;;;1.53;1.43;;;18.60;34.70;;;;;;5019468;28;20643;-71
2024/01/17 04:01:59;;;;;;;2.00;1.90;;;18.60;35.50;;;;;;5025340;28;20437;-71
2024/01/17 04:04:25;;;;;;;2.03;1.40;;;18.60;34.70;;;;;;5026684;28;21361;-71
2024/01/17 04:06:50;;;;;;;1.90;1.80;;;18.60;34.70;;;;;;5027581;28;20697;-71
2024/01/17 04:09:16;;;;;;;2.07;1.60;;;18.60;34.70;;;;;;5018430;28;20230;-71
2024/01/17 04:11:41;;;;;;;1.80;1.70;;;18.60;34.70;;;;;;5023769;28;21177;-71
2024/01/17 04:14:07;;;;;;;1.93;1.50;;;18.60;34.70;;;;;;5029479;28;20218;-71
2024/01/17 04:16:35;;;;;;;1.90;1.60;;;18.60;34.70;;;;;;5025804;28;20230;-71
2024/01/17 04:19:01;;;;;;;1.73;1.63;;;18.60;34.70;;;;;;5028492;28;20231;-71
2024/01/17 04:21:26;;;;;;;1.70;1.60;;;18.60;34.70;;;;;;5035194;28;20453;-71
2024/01/17 04:23:52;;;;;;;1.70;1.60;;;18.60;34.60;;;;;;5033090;28;20241;-71
2024/01/17 04:26:21;;;;;;;1.50;1.40;;;18.60;34.70;;;;;;5022581;28;20658;-71
2024/01/17 04:28:50;;;;;;;1.77;1.67;;;18.60;34.70;;;;;;5033751;28;20341;-71
2024/01/17 04:31:23;;;;;;;1.50;1.40;;;18.60;34.70;;;;;;5023943;28;20423;-70
2024/01/17 04:33:48;;;;;;;1.97;1.87;;;18.60;34.70;;;;;;5034294;28;20493;-71
2024/01/17 04:36:17;;;;;;;1.77;1.67;;;18.60;34.70;;;;;;5032299;28;20518;-70
2024/01/17 04:38:43;;;;;;;1.93;1.83;;;18.60;34.70;;;;;;5019893;28;20274;-70
2024/01/17 04:41:15;;;;;;;1.70;1.60;;;18.60;34.60;;;;;;5022022;28;20532;-71
2024/01/17 04:43:41;;;;;;;2.10;1.60;;;18.60;34.70;;;;;;5032011;28;20425;-71
2024/01/17 04:46:08;;;;;;;1.47;1.37;;;18.60;34.60;;;;;;5031718;28;20566;-70
2024/01/17 04:48:35;;;;;;;1.43;1.33;;;18.60;34.60;;;;;;5023180;28;20448;-70
2024/01/17 04:51:01;;;;;;;1.80;1.70;;;18.60;34.60;;;;;;5017632;28;20421;-71
2024/01/17 04:53:27;;;;;;;1.40;1.30;;;18.60;34.60;;;;;;5023387;28;21837;-70
2024/01/17 04:55:53;;;;;;;1.60;1.50;;;18.60;34.60;;;;;;5023927;28;20971;-70
2024/01/17 04:58:18;;;;;;;1.67;1.57;;;18.60;34.60;;;;;;5027908;28;20329;-70
2024/01/17 05:00:47;;;;;;;1.77;1.67;;;18.60;34.60;;;;;;5026297;28;20701;-71
2024/01/17 05:03:14;;;;;;;1.90;1.80;;;18.60;34.50;;;;;;5013558;28;20281;-70
2024/01/17 05:05:43;;;;;;;1.90;1.80;;;18.60;34.50;;;;;;5001597;28;20501;-71
2024/01/17 05:08:09;;;;;;;1.40;1.30;;;18.60;34.50;;;;;;5010054;28;20430;-70
2024/01/17 05:10:35;;;;;;;1.60;1.50;;;18.60;34.50;;;;;;5017772;28;20472;-70
2024/01/17 05:13:01;;;;;;;1.50;1.40;;;18.60;34.50;;;;;;5019124;28;20503;-69
2024/01/17 05:15:26;;;;;;;1.60;1.50;;;18.60;34.50;;;;;;5025463;28;20555;-69
2024/01/17 05:17:52;;;;;;;2.00;1.90;;;18.60;34.40;;;;;;5025111;28;20230;-70
2024/01/17 05:20:17;;;;;;;1.63;1.53;;;18.60;34.30;;;;;;5033584;28;20228;-71
2024/01/17 05:22:43;;;;;;;1.70;1.60;;;18.70;34.50;;;;;;5021840;28;20253;-71
2024/01/17 05:25:11;;;;;;;1.57;1.47;;;18.70;34.40;;;;;;5015285;28;20231;-71
2024/01/17 05:27:37;;;;;;;1.50;1.40;;;18.70;34.40;;;;;;5020259;28;20222;-70
2024/01/17 05:30:09;;;;;;;1.90;1.80;;;18.70;34.30;;;;;;5006307;28;20445;-74
2024/01/17 05:32:37;;;;;;;1.83;1.73;;;18.70;34.30;;;;;;5034395;28;20462;-72
2024/01/17 05:35:03;;;;;;;2.37;1.50;;;18.70;34.30;;;;;;5030049;28;20868;-72
2024/01/17 05:37:29;;;;;;;1.50;1.40;;;18.70;34.40;;;;;;5028754;28;20921;-72
2024/01/17 05:39:55;;;;;;;1.50;1.40;;;18.70;34.30;;;;;;5022212;28;20469;-71
2024/01/17 05:42:20;;;;;;;1.60;1.50;;;18.70;34.30;;;;;;5018024;28;20231;-71
2024/01/17 05:44:46;;;;;;;1.57;1.47;;;18.70;34.30;;;;;;5025451;28;20711;-72
2024/01/17 05:47:11;;;;;;;1.90;1.80;;;18.70;34.30;;;;;;5023634;28;20237;-71
2024/01/17 05:49:37;;;;;;;2.00;1.87;;;18.70;34.30;;;;;;5023224;28;20735;-72
2024/01/17 05:52:03;;;;;;;1.90;1.80;;;18.70;34.30;;;;;;5014827;28;20226;-71
2024/01/17 05:54:28;;;;;;;1.53;1.43;;;18.70;34.30;;;;;;5023872;28;20232;-71
2024/01/17 05:56:54;;;;;;;2.33;1.50;;;18.70;34.40;;;;;;5022200;28;20233;-70
2024/01/17 05:59:19;;;;;;;1.67;1.57;;;18.70;34.40;;;;;;5027020;28;20698;-70
2024/01/17 06:01:45;;;;;;;1.60;1.50;;;18.70;34.40;;;;;;5020516;28;20244;-70
2024/01/17 06:04:10;;;;;;;1.67;1.57;;;18.70;34.50;;;;;;5026454;28;20666;-71
2024/01/17 06:06:36;;;;;;;1.70;1.60;;;18.70;34.40;;;;;;5027294;28;20738;-73
2024/01/17 06:09:02;;;;;;;1.50;1.40;;;18.70;34.40;;;;;;5055764;28;20225;-73
2024/01/17 06:11:27;;;;;;;1.60;1.50;;;18.70;34.30;;;;;;5022706;28;20262;-73
2024/01/17 06:13:53;;;;;;;1.60;1.50;;;18.70;34.40;;;;;;5015163;28;20610;-74
2024/01/17 06:16:19;;;;;;;1.70;1.60;;;18.70;34.40;;;;;;5024273;28;20223;-72
2024/01/17 06:18:44;;;;;;;1.73;1.60;;;18.70;34.40;;;;;;5012561;28;20227;-71
2024/01/17 06:21:10;;;;;;;1.47;1.37;;;18.70;34.40;;;;;;5010894;28;20215;-73
2024/01/17 06:23:35;;;;;;;1.70;1.60;;;18.70;34.50;;;;;;5027340;28;20357;-71
2024/01/17 06:26:01;;;;;;;1.90;1.70;;;18.70;34.40;;;;;;5035647;28;20218;-72
2024/01/17 06:28:26;;;;;;;1.47;1.37;;;18.70;34.50;;;;;;5031890;28;20223;-71
2024/01/17 06:30:52;;;;;;;2.33;1.50;;;18.70;34.50;;;;;;5024615;28;20702;-72
2024/01/17 06:33:18;;;;;;;1.80;1.70;;;18.70;34.50;;;;;;5017349;28;20218;-71
2024/01/17 06:35:47;;;;;;;2.00;1.90;;;18.70;34.50;;;;;;5029170;28;20693;-72
2024/01/17 06:38:12;;;;;;;2.30;1.87;;;18.70;34.50;;;;;;5039696;28;20225;-72
2024/01/17 06:40:37;;;;;;;2.17;2.07;;;18.70;34.40;;;;;;5019165;28;20434;-68
2024/01/17 06:43:03;;;;;;;2.07;1.87;;;18.70;34.30;;;;;;5024418;28;20707;-70
2024/01/17 06:45:29;;;;;;;1.70;1.60;;;18.70;34.20;;;;;;5025512;28;20228;-70
2024/01/17 06:47:57;;;;;;;2.27;2.10;;;18.70;34.20;;;;;;5028825;28;20636;-70
2024/01/17 06:50:22;;;;;;;1.70;1.60;;;18.70;34.20;;;;;;5026710;28;20292;-71
2024/01/17 06:52:48;;;;;;;1.87;1.77;;;18.70;34.20;;;;;;5026334;28;20901;-72
2024/01/17 06:55:14;;;;;;;1.87;1.77;;;18.70;34.20;;;;;;5018212;28;20215;-71
2024/01/17 06:57:39;;;;;;;1.77;1.67;;;18.70;34.90;;;;;;5026101;28;20231;-71
2024/01/17 07:00:06;;;;;;;1.87;1.60;;;18.70;34.10;;;;;;5026263;28;20557;-72
2024/01/17 07:02:32;;;;;;;1.90;1.80;;;18.70;34.10;;;;;;5036719;28;20368;-72
2024/01/17 07:04:58;;;;;;;2.13;1.93;;;18.70;34.10;;;;;;5031927;28;20872;-71
2024/01/17 07:07:23;;;;;;;1.63;1.53;;;18.70;34.10;;;;;;5028409;28;20214;-73
2024/01/17 07:09:49;;;;;;;1.67;1.57;;;18.70;34.10;;;;;;5035640;28;20226;-73
2024/01/17 07:12:14;;;;;;;2.17;2.07;;;18.70;34.10;;;;;;5015070;28;20218;-73
2024/01/17 07:14:40;;;;;;;2.07;1.93;;;18.70;34.10;;;;;;5018831;28;24215;-72
2024/01/17 07:17:06;;;;;;;1.93;1.73;;;18.70;34.10;;;;;;5012784;28;20705;-73
2024/01/17 07:19:36;;;;;;;1.80;1.70;;;18.70;34.10;;;;;;5026414;28;21327;-73
2024/01/17 07:22:01;;;;;;;1.90;1.80;;;18.70;34.00;;;;;;5016604;28;20454;-72
2024/01/17 07:24:27;;;;;;;1.80;1.70;;;18.70;34.00;;;;;;5015297;28;20468;-71
2024/01/17 07:26:52;;;;;;;1.77;1.67;;;18.70;34.10;;;;;;5011905;28;21326;-71
2024/01/17 07:29:18;;;;;;;1.80;1.70;;;18.70;34.00;;;;;;5014729;28;20220;-72
2024/01/17 07:31:43;;;;;;;2.07;1.97;;;18.70;34.00;;;;;;5019428;28;20230;-72
2024/01/17 07:34:09;;;;;;;1.80;1.70;;;18.70;34.00;;;;;;5029852;28;20214;-73
2024/01/17 07:36:34;;;;;;;1.90;1.80;;;18.70;34.00;;;;;;5031156;28;20225;-72
2024/01/17 07:39:00;;;;;;;1.87;1.77;;;18.70;34.00;;;;;;5021595;28;20729;-72
2024/01/17 07:41:25;;;;;;;1.77;1.67;;;18.70;34.00;;;;;;5011970;28;20215;-74
2024/01/17 07:43:51;;;;;;;2.20;1.50;;;18.70;34.00;;;;;;5021164;28;20218;-74
2024/01/17 07:46:17;;;;;;;1.70;1.60;;;18.70;34.00;;;;;;5030085;28;20225;-74
2024/01/17 07:48:42;;;;;;;2.03;1.70;;;18.70;33.90;;;;;;5028691;28;20210;-73
2024/01/17 07:51:08;;;;;;;1.90;1.80;;;18.70;34.00;;;;;;5033159;28;20249;-72
2024/01/17 07:53:33;;;;;;;1.90;1.80;;;18.60;33.90;;;;;;5028643;28;20219;-70
2024/01/17 07:56:00;;;;;;;1.60;1.50;;;18.60;33.90;;;;;;5014127;28;21081;-70
2024/01/17 07:58:25;;;;;;;1.80;1.70;;;18.60;33.90;;;;;;5008334;28;20730;-72
2024/01/17 08:00:51;;;;;;;1.87;1.70;;;18.60;33.90;;;;;;5025738;28;20436;-73
2024/01/17 08:03:16;;;;;;;1.63;1.53;;;18.60;33.90;;;;;;5029007;28;20237;-73
2024/01/17 08:05:42;;;;;;;1.40;1.30;;;18.60;33.90;;;;;;5030813;28;20260;-71
2024/01/17 08:08:09;;;;;;;1.60;1.50;;;18.60;33.90;;;;;;5026926;28;20225;-71
2024/01/17 08:10:34;;;;;;;1.90;1.80;;;18.60;34.00;;;;;;5028029;28;20419;-71
2024/01/17 08:13:00;;;;;;;1.60;1.50;;;18.60;33.90;;;;;;5027355;28;20434;-70
2024/01/17 08:15:26;;;;;;;1.60;1.50;;;18.60;33.90;;;;;;5029804;28;20221;-72
2024/01/17 08:17:51;;;;;;;1.70;1.60;;;18.60;33.90;;;;;;5027318;28;20247;-71
2024/01/17 08:20:17;;;;;;;1.53;1.43;;;18.60;33.90;;;;;;5007764;28;20215;-71
2024/01/17 08:22:43;;;;;;;1.83;1.73;;;18.60;33.90;;;;;;5000335;28;20334;-73
2024/01/17 08:25:09;;;;;;;1.63;1.53;;;18.60;33.90;;;;;;5005548;28;20227;-72
2024/01/17 08:27:35;;;;;;;1.73;1.63;;;18.60;33.90;;;;;;5014422;28;20329;-71
2024/01/17 08:30:01;;;;;;;1.73;1.63;;;18.60;33.90;;;;;;5018873;28;20451;-71
2024/01/17 08:32:28;;;;;;;1.70;1.60;;;18.60;33.90;;;;;;5017123;28;21022;-72
2024/01/17 08:34:54;;;;;;;1.70;1.60;;;18.60;33.90;;;;;;5027778;28;20472;-73
2024/01/17 08:37:20;;;;;;;1.90;1.80;;;18.60;33.90;;;;;;5026290;28;20478;-73
2024/01/17 08:39:45;;;;;;;1.70;1.60;;;18.60;33.90;;;;;;5019824;28;20226;-72
2024/01/17 08:42:14;;;;;;;1.80;1.70;;;18.60;33.90;;;;;;5013823;28;20772;-73
2024/01/17 08:44:42;;;;;;;1.50;1.40;;;18.60;33.90;;;;;;5015804;28;20255;-73
2024/01/17 08:47:08;;;;;;;1.33;1.23;;;18.60;33.90;;;;;;5009897;28;20460;-72
2024/01/17 08:49:38;;;;;;;1.70;1.60;;;18.60;33.90;;;;;;5013793;28;20455;-73
2024/01/17 08:52:05;;;;;;;1.63;1.53;;;18.60;33.90;;;;;;5023706;28;20776;-73
2024/01/17 08:54:30;;;;;;;1.40;1.30;;;18.60;34.00;;;;;;5008901;28;20441;-73
2024/01/17 08:56:56;;;;;;;1.60;1.50;;;18.60;33.90;;;;;;5001985;28;20234;-73
2024/01/17 08:59:21;;;;;;;1.50;1.40;;;18.60;33.90;;;;;;5023645;28;20237;-73
2024/01/17 09:01:47;;;;;;;1.83;1.60;;;18.60;33.90;;;;;;5013461;28;20231;-73
2024/01/17 09:04:13;;;;;;;1.60;1.50;;;18.60;34.00;;;;;;5015853;28;20222;-73
2024/01/17 09:06:39;;;;;;;1.40;1.30;;;18.60;33.90;;;;;;5022204;28;20315;-72
2024/01/17 09:09:05;;;;;;;1.67;1.57;;;18.60;33.90;;;;;;5019443;28;20288;-73
2024/01/17 09:11:31;;;;;;;1.60;1.50;;;18.60;33.90;;;;;;5023066;28;20419;-73
2024/01/17 09:13:57;;;;;;;1.70;1.60;;;18.60;33.90;;;;;;5012397;28;21441;-74
2024/01/17 09:16:23;;;;;;;1.60;1.50;;;18.60;33.90;;;;;;5018582;28;20237;-73
2024/01/17 09:18:49;;;;;;;1.80;1.70;;;18.60;33.90;;;;;;5013862;28;20471;-73
2024/01/17 09:21:14;;;;;;;1.40;1.30;;;18.60;33.90;;;;;;5003082;28;20218;-73
2024/01/17 09:23:40;;;;;;;1.70;1.60;;;18.60;33.90;;;;;;5019170;28;20309;-71
2024/01/17 09:26:06;;;;;;;1.40;1.30;;;18.60;34.70;;;;;;4992759;28;20412;-72
2024/01/17 09:28:31;;;;;;;1.73;1.63;;;18.60;33.90;;;;;;5007227;28;20367;-72
2024/01/17 09:30:57;;;;;;;1.60;1.50;;;18.60;33.90;;;;;;5014879;28;20218;-73
2024/01/17 09:33:22;;;;;;;1.47;1.37;;;18.60;33.90;;;;;;5020479;28;20246;-73
2024/01/17 09:35:48;;;;;;;1.80;1.70;;;18.60;33.90;;;;;;5029894;28;22202;-73
2024/01/17 09:38:14;;;;;;;1.70;1.60;;;18.60;33.90;;;;;;5025268;28;20214;-73
2024/01/17 09:40:39;;;;;;;1.60;1.50;;;18.60;33.90;;;;;;5018440;28;21397;-73
2024/01/17 09:43:06;;;;;;;1.70;1.60;;;18.60;33.90;;;;;;5026204;28;20570;-73
2024/01/17 09:45:33;;;;;;;2.27;1.30;;;18.60;33.90;;;;;;5011539;28;20588;-74
2024/01/17 09:48:00;;;;;;;1.60;1.50;;;18.60;33.90;;;;;;5020521;28;20504;-73
2024/01/17 09:50:27;;;;;;;1.50;1.40;;;18.60;33.90;;;;;;5028555;28;20987;-72
2024/01/17 09:52:54;;;;;;;3.23;1.47;;;18.60;33.80;;;;;;5025452;28;20434;-73
2024/01/17 09:55:21;;;;;;;1.50;1.40;;;18.60;33.90;;;;;;5010833;28;20431;-71
2024/01/17 09:57:56;;;;;;;1.93;1.70;;;18.60;33.90;;;;;;5015485;28;20482;-71
2024/01/17 10:00:22;;;;;;;1.67;1.57;;;18.60;33.80;;;;;;5010800;28;20507;-73
2024/01/17 10:02:49;;;;;;;1.40;1.30;;;18.60;33.90;;;;;;5020784;28;20468;-73
2024/01/17 10:05:16;;;;;;;1.50;1.40;;;18.60;33.90;;;;;;5019131;28;20482;-73
2024/01/17 10:07:41;;;;;;;1.37;1.27;;;18.60;33.90;;;;;;5009953;28;20443;-73
2024/01/17 10:10:09;;;;;;;1.50;1.40;;;18.60;33.90;;;;;;5028463;28;20481;-73
2024/01/17 10:12:34;;;;;;;1.70;1.60;;;18.60;33.90;;;;;;5025016;28;20250;-73
2024/01/17 10:15:06;;;;;;;1.60;1.50;;;18.60;33.80;;;;;;5025863;28;20521;-73
2024/01/17 10:17:35;;;;;;;1.60;1.50;;;18.50;33.70;;;;;;5021281;28;20221;-73
2024/01/17 10:20:01;;;;;;;1.40;1.30;;;18.50;33.70;;;;;;5020163;28;20431;-73
2024/01/17 10:22:26;;;;;;;1.30;1.20;;;18.50;33.70;;;;;;5055806;28;20441;-72
2024/01/17 10:24:52;;;;;;;1.30;1.20;;;18.50;33.80;;;;;;5043860;28;20881;-72
2024/01/17 10:27:18;;;;;;;1.40;1.30;;;18.60;33.90;;;;;;5008233;28;20234;-73
2024/01/17 10:29:44;;;;;;;1.30;1.20;;;18.50;33.80;;;;;;5015765;28;20449;-73
2024/01/17 10:32:09;;;;;;;1.37;1.27;;;18.50;33.80;;;;;;5013786;28;20229;-73
2024/01/17 10:34:38;;;;;;;1.67;1.57;;;18.50;33.80;;;;;;5025410;28;20249;-72
2024/01/17 10:37:04;;;;;;;1.70;1.60;;;18.50;33.70;;;;;;5015971;28;20227;-73
2024/01/17 10:39:30;;;;;;;1.60;1.50;;;18.50;33.80;;;;;;5023890;28;20466;-73
2024/01/17 10:41:56;;;;;;;1.90;1.80;;;18.50;33.80;;;;;;5028248;28;20863;-71
2024/01/17 10:44:22;;;;;;;1.40;1.30;;;18.50;33.80;;;;;;5002838;28;20257;-72
2024/01/17 10:46:50;;;;;;;2.40;1.53;;;18.50;33.80;;;;;;5020580;28;20997;-72
2024/01/17 10:49:19;;;;;;;1.70;1.60;;;18.60;33.90;;;;;;5011106;28;20948;-73
2024/01/17 10:52:02;;;;;;;1.47;1.37;;;18.50;33.80;;;;;;5011266;28;21752;-71
2024/01/17 10:54:30;;;;;;;2.70;1.83;;;18.50;33.80;;;;;;5022312;28;21398;-71
2024/01/17 10:56:56;;;;;;;1.60;1.50;;;18.50;34.00;;;;;;5012224;28;20476;-72
2024/01/17 10:59:22;;;;;;;2.00;1.80;;;18.50;33.90;;;;;;5017197;28;20578;-71
2024/01/17 11:01:50;;;;;;;1.67;1.57;;;18.50;33.90;;;;;;5062419;28;21140;-73
2024/01/17 11:04:28;;;;;;;1.43;1.33;;;18.50;33.90;;;;;;5029796;28;20229;-73
2024/01/17 11:06:54;;;;;;;1.60;1.50;;;18.50;34.00;;;;;;5015646;28;20555;-73
2024/01/17 11:09:22;;;;;;;1.50;1.40;;;18.50;34.00;;;;;;5021707;28;20435;-73
2024/01/17 11:11:49;;;;;;;1.70;1.60;;;18.50;33.90;;;;;;5027549;28;20451;-73
2024/01/17 11:14:16;;;;;;;1.50;1.40;;;18.50;33.90;;;;;;5017437;28;20502;-73
2024/01/17 11:16:46;;;;;;;1.50;1.40;;;18.50;34.00;;;;;;5019063;28;20479;-73
2024/01/17 11:19:13;;;;;;;1.50;1.40;;;18.50;34.00;;;;;;5012490;28;20545;-73
2024/01/17 11:21:39;;;;;;;1.70;1.60;;;18.50;34.70;;;;;;5017616;28;20520;-71
2024/01/17 11:24:08;;;;;;;2.23;1.80;;;18.50;34.00;;;;;;5024637;28;20577;-73
2024/01/17 11:26:37;;;;;;;1.57;1.47;;;18.50;34.00;;;;;;5018773;28;20227;-73
2024/01/17 11:29:15;;;;;;;1.50;1.40;;;18.50;34.10;;;;;;5018802;28;20431;-73
2024/01/17 11:32:09;;;;;;;1.30;1.20;;;18.50;34.00;;;;;;5007040;28;20874;-73
2024/01/17 11:34:35;;;;;;;1.60;1.50;;;18.50;34.00;;;;;;5020898;28;20495;-73
2024/01/17 11:37:00;;;;;;;1.93;1.83;;;18.50;34.00;;;;;;5013947;28;20485;-73
2024/01/17 11:39:26;;;;;;;2.07;1.97;;;18.50;34.00;;;;;;5009322;28;20227;-73
2024/01/17 11:41:52;;;;;;;1.43;1.33;;;18.50;34.00;;;;;;5016960;28;20592;-73
2024/01/17 11:44:19;;;;;;;1.63;1.53;;;18.50;34.00;;;;;;5023442;28;20250;-73
2024/01/17 11:46:53;;;;;;;1.50;1.40;;;18.50;34.00;;;;;;5012280;28;20678;-71
2024/01/17 11:49:40;;;;;;;1.63;1.53;;;18.50;34.00;;;;;;5015248;28;20654;-72
2024/01/17 11:52:29;;;;;;;1.60;1.50;;;18.50;34.00;;;;;;5007254;28;20502;-73
2024/01/17 11:54:55;;;;;;;1.33;1.23;;;18.50;34.00;;;;;;5058234;28;20948;-73
2024/01/17 11:57:23;;;;;;;1.50;1.40;;;18.50;34.00;;;;;;5026893;28;20422;-73
2024/01/17 12:00:12;;;;;;;1.43;1.33;;;18.50;34.10;;;;;;5022306;28;20269;-73
2024/01/17 12:02:43;;;;;;;1.50;1.40;;;18.50;34.00;;;;;;5018005;28;20450;-73
2024/01/17 12:05:10;;;;;;;1.77;1.67;;;18.50;34.00;;;;;;5022328;28;20467;-73
2024/01/17 12:07:40;;;;;;;1.40;1.30;;;18.50;34.10;;;;;;5021598;28;20462;-73
2024/01/17 12:10:10;;;;;;;1.60;1.50;;;18.50;34.00;;;;;;5026396;28;20443;-73
2024/01/17 12:12:42;;;;;;;1.70;1.60;;;18.50;34.00;;;;;;5013602;28;21006;-73
2024/01/17 12:15:11;;;;;;;1.30;1.20;;;18.50;34.10;;;;;;5018756;28;20507;-73
2024/01/17 12:17:38;;;;;;;1.27;1.17;;;18.50;34.10;;;;;;5016300;28;20836;-73
2024/01/17 12:20:08;;;;;;;1.43;1.33;;;18.50;34.10;;;;;;5016728;28;20627;-73
2024/01/17 12:22:37;;;;;;;1.20;1.10;;;18.50;34.20;;;;;;5027044;28;21249;-73
2024/01/17 12:25:03;;;;;;;1.70;1.60;;;18.50;34.20;;;;;;5011336;28;20446;-73
2024/01/17 12:27:31;;;;;;;1.30;1.20;;;18.50;34.20;;;;;;5018232;28;20434;-73
2024/01/17 12:30:07;;;;;;;1.60;1.50;;;18.50;34.20;;;;;;5020994;28;20434;-73
2024/01/17 12:32:33;;;;;;;1.33;1.23;;;18.50;34.20;;;;;;5023667;28;20848;-74
2024/01/17 12:34:59;;;;;;;1.57;1.47;;;18.50;34.20;;;;;;5019035;28;20427;-74
2024/01/17 12:37:25;;;;;;;1.27;1.17;;;18.50;34.30;;;;;;5014532;28;20450;-74
2024/01/17 12:39:51;;;;;;;1.30;1.20;;;18.50;34.30;;;;;;5018347;28;20689;-74
2024/01/17 12:42:18;;;;;;;1.70;1.60;;;18.50;34.30;;;;;;5000082;28;21273;-73
2024/01/17 12:44:45;;;;;;;1.50;1.40;;;18.50;34.30;;;;;;5016238;28;20697;-73